createdAt,value
2017-05-23T00:00:39.890Z,8.35
2017-05-23T00:01:50.151Z,8.35
2017-05-23T00:02:59.786Z,8.35
2017-05-23T00:04:09.673Z,8.36
2017-05-23T00:05:19.691Z,8.38
2017-05-23T00:06:30.014Z,8.32
2017-05-23T00:07:40.283Z,8.28
2017-05-23T00:08:50.538Z,8.31
2017-05-23T00:10:00.802Z,8.27
2017-05-23T00:11:11.069Z,8.23
2017-05-23T00:12:21.332Z,8.24
2017-05-23T00:13:31.590Z,8.17
2017-05-23T00:14:41.853Z,8.2
2017-05-23T00:15:52.115Z,8.09
2017-05-23T00:17:02.379Z,8.06
2017-05-23T00:18:12.647Z,7.99
2017-05-23T00:19:22.597Z,7.99
2017-05-23T00:20:32.861Z,7.96
2017-05-23T00:21:43.130Z,7.95
2017-05-23T00:22:53.077Z,7.9
2017-05-23T00:24:03.338Z,7.85
2017-05-23T00:25:13.641Z,7.83
2017-05-23T00:26:23.897Z,7.81
2017-05-23T00:27:34.155Z,7.69
2017-05-23T00:28:44.108Z,7.69
2017-05-23T00:29:54.374Z,7.58
2017-05-23T00:31:04.640Z,7.59
2017-05-23T00:32:14.902Z,7.48
2017-05-23T00:33:25.222Z,7.5
2017-05-23T00:34:35.175Z,7.4
2017-05-23T00:35:45.437Z,7.43
2017-05-23T00:36:55.692Z,7.39
2017-05-23T00:38:05.633Z,7.36
2017-05-23T00:39:15.965Z,7.25
2017-05-23T00:40:25.913Z,7.29
2017-05-23T00:41:36.170Z,7.31
2017-05-23T00:42:46.426Z,7.26
2017-05-23T00:43:56.381Z,7.23
2017-05-23T00:45:06.644Z,7.31
2017-05-23T00:46:16.898Z,7.14
2017-05-23T00:47:27.160Z,7.18
2017-05-23T00:48:37.423Z,7.22
2017-05-23T00:49:47.687Z,7.18
2017-05-23T00:50:57.945Z,7.15
2017-05-23T00:52:07.889Z,7.18
2017-05-23T00:53:18.155Z,7.14
2017-05-23T00:54:28.105Z,7.21
2017-05-23T00:55:38.363Z,7.14
2017-05-23T00:56:48.621Z,7.14
2017-05-23T00:57:58.570Z,7.15
2017-05-23T00:59:08.828Z,7.04
2017-05-23T01:00:18.457Z,7.07
2017-05-23T01:01:28.710Z,7.05
2017-05-23T01:02:38.991Z,7.08
2017-05-23T01:03:48.938Z,7
2017-05-23T01:04:59.197Z,7.03
2017-05-23T01:06:09.149Z,6.9
2017-05-23T01:07:19.094Z,6.95
2017-05-23T01:08:29.045Z,6.89
2017-05-23T01:09:39.310Z,6.78
2017-05-23T01:10:49.576Z,6.75
2017-05-23T01:11:59.847Z,6.71
2017-05-23T01:13:10.105Z,6.77
2017-05-23T01:14:20.363Z,6.72
2017-05-23T01:15:30.629Z,6.71
2017-05-23T01:16:40.946Z,6.75
2017-05-23T01:17:51.203Z,6.68
2017-05-23T01:19:01.467Z,6.7
2017-05-23T01:20:11.732Z,6.56
2017-05-23T01:21:21.988Z,6.6
2017-05-23T01:22:32.246Z,6.62
2017-05-23T01:23:42.510Z,6.52
2017-05-23T01:24:52.776Z,6.59
2017-05-23T01:26:03.037Z,6.64
2017-05-23T01:27:13.294Z,6.5
2017-05-23T01:28:23.614Z,6.5
2017-05-23T01:29:33.880Z,6.5
2017-05-23T01:30:44.143Z,6.56
2017-05-23T01:31:54.087Z,6.53
2017-05-23T01:33:04.347Z,6.49
2017-05-23T01:34:14.618Z,6.54
2017-05-23T01:35:24.878Z,6.52
2017-05-23T01:36:35.134Z,6.6
2017-05-23T01:37:45.080Z,6.56
2017-05-23T01:38:55.346Z,6.59
2017-05-23T01:40:05.611Z,6.6
2017-05-23T01:41:15.873Z,6.54
2017-05-23T01:42:26.132Z,6.59
2017-05-23T01:43:36.390Z,6.64
2017-05-23T01:44:46.657Z,6.57
2017-05-23T01:45:56.913Z,6.6
2017-05-23T01:47:07.181Z,6.53
2017-05-23T01:48:17.442Z,6.54
2017-05-23T01:49:27.388Z,6.43
2017-05-23T01:50:37.650Z,6.46
2017-05-23T01:51:47.906Z,6.43
2017-05-23T01:52:58.230Z,6.32
2017-05-23T01:54:08.184Z,6.34
2017-05-23T01:55:18.447Z,6.32
2017-05-23T01:56:28.399Z,6.38
2017-05-23T01:57:38.677Z,6.32
2017-05-23T01:58:48.628Z,6.43
2017-05-23T01:59:58.884Z,6.29
2017-05-23T02:01:08.834Z,6.34
2017-05-23T02:02:19.094Z,6.34
2017-05-23T02:03:29.041Z,6.34
2017-05-23T02:04:39.295Z,6.2
2017-05-23T02:05:49.555Z,6.22
2017-05-23T02:06:59.810Z,6.26
2017-05-23T02:08:09.746Z,6.25
2017-05-23T02:09:20.012Z,6.36
2017-05-23T02:10:29.641Z,6.34
2017-05-23T02:11:39.894Z,6.29
2017-05-23T02:12:52.190Z,6.32
2017-05-23T02:14:02.460Z,6.31
2017-05-23T02:15:12.407Z,6.26
2017-05-23T02:16:22.664Z,6.28
2017-05-23T02:17:32.919Z,6.25
2017-05-23T02:18:43.183Z,6.29
2017-05-23T02:19:53.138Z,6.2
2017-05-23T02:21:03.395Z,6.19
2017-05-23T02:22:13.665Z,6.19
2017-05-23T02:23:23.927Z,6.19
2017-05-23T02:24:34.191Z,6.16
2017-05-23T02:25:43.820Z,6.13
2017-05-23T02:26:54.081Z,6.12
2017-05-23T02:28:04.339Z,6.09
2017-05-23T02:29:14.287Z,6.15
2017-05-23T02:30:24.858Z,6.19
2017-05-23T02:31:35.115Z,6.28
2017-05-23T02:32:45.371Z,6.25
2017-05-23T02:33:55.317Z,6.22
2017-05-23T02:35:05.573Z,6.34
2017-05-23T02:36:15.846Z,6.39
2017-05-23T02:37:25.860Z,6.39
2017-05-23T02:38:36.120Z,6.5
2017-05-23T02:39:46.064Z,6.57
2017-05-23T02:40:56.319Z,6.57
2017-05-23T02:42:06.835Z,6.57
2017-05-23T02:43:16.783Z,6.56
2017-05-23T02:44:26.732Z,6.54
2017-05-23T02:45:36.988Z,6.59
2017-05-23T02:46:47.252Z,6.62
2017-05-23T02:47:59.523Z,6.54
2017-05-23T02:49:09.781Z,6.5
2017-05-23T02:50:20.046Z,6.53
2017-05-23T02:51:30.299Z,6.46
2017-05-23T02:52:40.550Z,6.46
2017-05-23T02:53:50.809Z,6.52
2017-05-23T02:55:01.078Z,6.34
2017-05-23T02:56:10.726Z,6.38
2017-05-23T02:57:20.987Z,6.32
2017-05-23T02:58:31.244Z,6.35
2017-05-23T02:59:41.189Z,6.38
2017-05-23T03:00:50.822Z,6.34
2017-05-23T03:02:01.081Z,6.34
2017-05-23T03:03:11.346Z,6.29
2017-05-23T03:04:21.617Z,6.15
2017-05-23T03:05:31.300Z,6.29
2017-05-23T03:06:41.249Z,6.15
2017-05-23T03:07:51.503Z,6.26
2017-05-23T03:09:01.769Z,6.16
2017-05-23T03:10:12.030Z,6.25
2017-05-23T03:11:21.990Z,6.19
2017-05-23T03:12:31.938Z,6.25
2017-05-23T03:13:42.199Z,6.19
2017-05-23T03:14:51.832Z,6.19
2017-05-23T03:16:01.799Z,6.26
2017-05-23T03:17:14.258Z,6.17
2017-05-23T03:18:24.573Z,6.25
2017-05-23T03:19:34.516Z,6.25
2017-05-23T03:20:44.773Z,6.28
2017-05-23T03:21:54.711Z,6.26
2017-05-23T03:23:04.970Z,6.38
2017-05-23T03:24:14.914Z,6.31
2017-05-23T03:25:25.172Z,6.22
2017-05-23T03:26:35.436Z,6.25
2017-05-23T03:27:45.706Z,6.35
2017-05-23T03:28:55.967Z,6.28
2017-05-23T03:30:05.598Z,6.19
2017-05-23T03:31:15.602Z,6.17
2017-05-23T03:32:25.556Z,6.22
2017-05-23T03:33:35.498Z,6.15
2017-05-23T03:34:45.131Z,6.26
2017-05-23T03:35:55.384Z,6.2
2017-05-23T03:37:05.640Z,6.15
2017-05-23T03:38:15.592Z,6.1
2017-05-23T03:39:25.854Z,6.19
2017-05-23T03:40:36.111Z,6.17
2017-05-23T03:41:46.408Z,6.29
2017-05-23T03:42:56.670Z,6.26
2017-05-23T03:44:06.929Z,6.22
2017-05-23T03:45:16.876Z,6.38
2017-05-23T03:46:27.136Z,6.34
2017-05-23T03:47:37.399Z,6.38
2017-05-23T03:48:47.666Z,6.41
2017-05-23T03:49:57.613Z,6.46
2017-05-23T03:51:07.869Z,6.44
2017-05-23T03:52:18.124Z,6.5
2017-05-23T03:53:27.755Z,6.52
2017-05-23T03:54:38.011Z,6.6
2017-05-23T03:55:48.273Z,6.62
2017-05-23T03:56:58.530Z,6.68
2017-05-23T03:58:08.482Z,6.6
2017-05-23T03:59:18.737Z,6.57
2017-05-23T04:00:28.996Z,6.62
2017-05-23T04:01:38.942Z,6.57
2017-05-23T04:02:48.887Z,6.62
2017-05-23T04:03:59.155Z,6.56
2017-05-23T04:05:09.409Z,6.7
2017-05-23T04:06:19.669Z,6.71
2017-05-23T04:07:29.934Z,6.71
2017-05-23T04:08:40.205Z,6.78
2017-05-23T04:09:50.466Z,6.78
2017-05-23T04:11:00.730Z,6.82
2017-05-23T04:12:10.990Z,6.86
2017-05-23T04:13:20.936Z,7
2017-05-23T04:14:31.271Z,7.01
2017-05-23T04:15:41.221Z,7.03
2017-05-23T04:16:51.480Z,7.15
2017-05-23T04:18:01.425Z,7.13
2017-05-23T04:19:11.371Z,7.23
2017-05-23T04:20:21.634Z,7.15
2017-05-23T04:21:31.893Z,7.13
2017-05-23T04:22:41.835Z,7.14
2017-05-23T04:23:51.777Z,7.21
2017-05-23T04:25:02.037Z,7.22
2017-05-23T04:26:11.985Z,7.19
2017-05-23T04:27:22.242Z,7.18
2017-05-23T04:28:32.500Z,7.29
2017-05-23T04:29:42.755Z,7.31
2017-05-23T04:30:53.016Z,7.33
2017-05-23T04:32:02.963Z,7.43
2017-05-23T04:33:13.231Z,7.39
2017-05-23T04:34:23.181Z,7.53
2017-05-23T04:35:33.447Z,7.53
2017-05-23T04:36:43.710Z,7.59
2017-05-23T04:37:53.341Z,7.69
2017-05-23T04:39:03.597Z,7.81
2017-05-23T04:40:13.861Z,7.74
2017-05-23T04:41:24.123Z,7.85
2017-05-23T04:42:34.070Z,7.93
2017-05-23T04:43:44.346Z,7.88
2017-05-23T04:44:54.610Z,7.98
2017-05-23T04:46:04.892Z,7.91
2017-05-23T04:47:14.850Z,7.96
2017-05-23T04:48:25.110Z,7.93
2017-05-23T04:49:35.062Z,8.02
2017-05-23T04:50:45.324Z,7.99
2017-05-23T04:51:55.589Z,8.08
2017-05-23T04:53:05.851Z,8.17
2017-05-23T04:54:15.814Z,8.18
2017-05-23T04:55:25.767Z,8.28
2017-05-23T04:56:36.039Z,8.2
2017-05-23T04:57:46.308Z,8.24
2017-05-23T04:58:56.578Z,8.28
2017-05-23T05:00:06.839Z,8.28
2017-05-23T05:01:17.115Z,8.36
2017-05-23T05:02:27.073Z,8.36
2017-05-23T05:03:37.016Z,8.36
2017-05-23T05:04:47.278Z,8.38
2017-05-23T05:05:56.912Z,8.38
2017-05-23T05:07:06.857Z,8.38
2017-05-23T05:08:17.128Z,8.49
2017-05-23T05:09:27.399Z,8.44
2017-05-23T05:10:37.346Z,8.44
2017-05-23T05:11:47.613Z,8.41
2017-05-23T05:12:57.305Z,8.45
2017-05-23T05:14:07.566Z,8.6
2017-05-23T05:15:17.511Z,8.57
2017-05-23T05:16:27.514Z,8.66
2017-05-23T05:17:37.779Z,8.74
2017-05-23T05:18:47.727Z,8.69
2017-05-23T05:19:57.992Z,8.69
2017-05-23T05:21:07.933Z,8.81
2017-05-23T05:22:18.199Z,8.79
2017-05-23T05:23:28.457Z,8.77
2017-05-23T05:24:38.404Z,8.89
2017-05-23T05:25:48.349Z,9.02
2017-05-23T05:26:58.610Z,8.97
2017-05-23T05:28:08.246Z,9.02
2017-05-23T05:29:18.506Z,9.09
2017-05-23T05:30:28.455Z,9.02
2017-05-23T05:31:38.719Z,9.11
2017-05-23T05:32:48.669Z,9.13
2017-05-23T05:33:58.621Z,9.03
2017-05-23T05:35:08.884Z,9.18
2017-05-23T05:36:18.830Z,9.16
2017-05-23T05:37:29.094Z,9.27
2017-05-23T05:38:39.356Z,9.34
2017-05-23T05:39:49.623Z,9.26
2017-05-23T05:40:59.265Z,9.45
2017-05-23T05:42:09.531Z,9.42
2017-05-23T05:43:19.476Z,9.42
2017-05-23T05:44:29.426Z,9.48
2017-05-23T05:45:39.381Z,9.47
2017-05-23T05:46:49.646Z,9.51
2017-05-23T05:47:59.595Z,9.56
2017-05-23T05:49:09.226Z,9.54
2017-05-23T05:50:19.489Z,9.59
2017-05-23T05:51:29.126Z,9.67
2017-05-23T05:52:39.385Z,9.66
2017-05-23T05:53:49.659Z,9.63
2017-05-23T05:54:59.620Z,9.64
2017-05-23T05:56:09.576Z,9.62
2017-05-23T05:57:19.840Z,9.67
2017-05-23T05:58:29.791Z,9.64
2017-05-23T05:59:39.744Z,9.55
2017-05-23T06:00:50.004Z,9.54
2017-05-23T06:01:59.951Z,9.52
2017-05-23T06:03:10.212Z,9.67
2017-05-23T06:04:20.479Z,9.58
2017-05-23T06:05:30.426Z,9.62
2017-05-23T06:06:40.698Z,9.62
2017-05-23T06:07:50.964Z,9.8
2017-05-23T06:09:01.225Z,9.8
2017-05-23T06:10:11.182Z,9.8
2017-05-23T06:11:20.506Z,9.87
2017-05-23T06:12:30.766Z,9.88
2017-05-23T06:13:41.026Z,9.91
2017-05-23T06:14:51.288Z,9.85
2017-05-23T06:16:01.558Z,9.84
2017-05-23T06:17:11.818Z,9.91
2017-05-23T06:18:21.772Z,9.92
2017-05-23T06:19:32.041Z,9.95
2017-05-23T06:20:42.305Z,9.91
2017-05-23T06:21:52.569Z,10.03
2017-05-23T06:23:02.519Z,10.05
2017-05-23T06:24:12.781Z,10.1
2017-05-23T06:25:23.048Z,10.05
2017-05-23T06:26:32.368Z,10.07
2017-05-23T06:27:42.318Z,10.15
2017-05-23T06:28:52.583Z,10.1
2017-05-23T06:30:02.531Z,10.1
2017-05-23T06:31:12.178Z,10.1
2017-05-23T06:32:22.125Z,10.15
2017-05-23T06:33:32.384Z,10.15
2017-05-23T06:34:42.341Z,10.18
2017-05-23T06:35:52.604Z,10.12
2017-05-23T06:37:02.560Z,10.27
2017-05-23T06:38:12.820Z,10.25
2017-05-23T06:39:22.770Z,10.34
2017-05-23T06:40:32.728Z,10.36
2017-05-23T06:41:42.676Z,10.38
2017-05-23T06:42:52.004Z,10.38
2017-05-23T06:44:02.267Z,10.39
2017-05-23T06:45:12.533Z,10.42
2017-05-23T06:46:22.797Z,10.48
2017-05-23T06:47:32.427Z,10.55
2017-05-23T06:48:42.373Z,10.62
2017-05-23T06:49:52.344Z,10.61
2017-05-23T06:51:02.605Z,10.65
2017-05-23T06:52:12.876Z,10.72
2017-05-23T06:53:22.830Z,10.77
2017-05-23T06:54:32.778Z,10.67
2017-05-23T06:55:43.046Z,10.83
2017-05-23T06:56:53.306Z,10.89
2017-05-23T06:58:03.576Z,10.86
2017-05-23T06:59:13.841Z,10.84
2017-05-23T07:00:23.788Z,10.87
2017-05-23T07:01:34.050Z,10.98
2017-05-23T07:02:43.996Z,11.04
2017-05-23T07:03:53.949Z,10.92
2017-05-23T07:05:03.900Z,10.87
2017-05-23T07:06:13.851Z,10.87
2017-05-23T07:07:24.112Z,10.9
2017-05-23T07:08:34.061Z,10.86
2017-05-23T07:09:44.007Z,10.8
2017-05-23T07:10:54.267Z,10.8
2017-05-23T07:12:04.216Z,10.82
2017-05-23T07:13:14.172Z,10.87
2017-05-23T07:14:24.132Z,10.83
2017-05-23T07:15:34.071Z,10.71
2017-05-23T07:16:44.329Z,10.82
2017-05-23T07:17:54.592Z,10.82
2017-05-23T07:19:04.539Z,10.8
2017-05-23T07:20:14.801Z,10.87
2017-05-23T07:21:24.441Z,11
2017-05-23T07:22:34.386Z,11.04
2017-05-23T07:23:44.650Z,11.05
2017-05-23T07:24:54.287Z,11.15
2017-05-23T07:26:04.548Z,11.22
2017-05-23T07:27:14.497Z,11.2
2017-05-23T07:28:24.763Z,11.18
2017-05-23T07:29:34.713Z,11.22
2017-05-23T07:30:44.671Z,11.2
2017-05-23T07:31:54.625Z,11.27
2017-05-23T07:33:04.632Z,11.38
2017-05-23T07:34:14.597Z,11.41
2017-05-23T07:35:24.547Z,11.44
2017-05-23T07:36:34.188Z,11.44
2017-05-23T07:37:44.142Z,11.49
2017-05-23T07:38:54.408Z,11.56
2017-05-23T07:40:04.364Z,11.7
2017-05-23T07:41:14.318Z,11.68
2017-05-23T07:42:24.270Z,11.63
2017-05-23T07:43:34.530Z,11.62
2017-05-23T07:44:44.489Z,11.53
2017-05-23T07:45:54.440Z,11.6
2017-05-23T07:47:04.702Z,11.63
2017-05-23T07:48:14.972Z,11.62
2017-05-23T07:49:24.928Z,11.63
2017-05-23T07:50:34.879Z,11.65
2017-05-23T07:51:44.832Z,11.51
2017-05-23T07:52:55.096Z,11.53
2017-05-23T07:54:05.079Z,11.48
2017-05-23T07:55:15.026Z,11.53
2017-05-23T07:56:24.976Z,11.6
2017-05-23T07:57:34.626Z,11.65
2017-05-23T07:58:44.894Z,11.62
2017-05-23T07:59:54.538Z,11.6
2017-05-23T08:01:04.803Z,11.71
2017-05-23T08:02:15.083Z,11.74
2017-05-23T08:03:24.718Z,11.91
2017-05-23T08:04:34.982Z,11.96
2017-05-23T08:05:45.283Z,12.02
2017-05-23T08:06:55.648Z,12.1
2017-05-23T08:08:05.286Z,12
2017-05-23T08:09:14.605Z,11.91
2017-05-23T08:10:24.556Z,11.83
2017-05-23T08:11:34.194Z,11.91
2017-05-23T08:12:44.153Z,11.97
2017-05-23T08:13:54.417Z,12.07
2017-05-23T08:15:04.699Z,12.03
2017-05-23T08:16:14.962Z,12.17
2017-05-23T08:17:24.908Z,12.29
2017-05-23T08:18:34.597Z,12.36
2017-05-23T08:19:44.860Z,12.37
2017-05-23T08:20:55.139Z,12.51
2017-05-23T08:22:04.769Z,12.5
2017-05-23T08:23:14.406Z,12.62
2017-05-23T08:24:24.678Z,12.66
2017-05-23T08:25:34.943Z,12.76
2017-05-23T08:26:44.575Z,12.73
2017-05-23T08:27:54.526Z,12.8
2017-05-23T08:29:04.792Z,12.88
2017-05-23T08:30:14.430Z,12.83
2017-05-23T08:31:24.694Z,12.69
2017-05-23T08:32:34.972Z,12.62
2017-05-23T08:33:44.928Z,12.68
2017-05-23T08:34:54.878Z,12.72
2017-05-23T08:36:04.840Z,12.65
2017-05-23T08:37:14.479Z,12.62
2017-05-23T08:38:24.117Z,12.65
2017-05-23T08:39:34.400Z,12.68
2017-05-23T08:40:44.370Z,12.61
2017-05-23T08:41:54.321Z,12.7
2017-05-23T08:43:03.961Z,12.81
2017-05-23T08:44:14.245Z,12.7
2017-05-23T08:45:24.196Z,12.83
2017-05-23T08:46:34.149Z,12.8
2017-05-23T08:47:44.419Z,12.78
2017-05-23T08:48:54.710Z,12.68
2017-05-23T08:50:04.974Z,12.65
2017-05-23T08:51:14.609Z,12.63
2017-05-23T08:52:24.868Z,12.81
2017-05-23T08:53:35.141Z,12.73
2017-05-23T08:54:44.465Z,12.88
2017-05-23T08:55:54.414Z,12.88
2017-05-23T08:57:04.671Z,12.95
2017-05-23T08:58:14.936Z,12.95
2017-05-23T08:59:25.206Z,13.05
2017-05-23T09:00:35.471Z,13.16
2017-05-23T09:01:45.735Z,13.13
2017-05-23T09:02:55.690Z,13.27
2017-05-23T09:04:05.956Z,13.26
2017-05-23T09:05:15.595Z,13.27
2017-05-23T09:06:25.542Z,13.37
2017-05-23T09:07:35.800Z,13.46
2017-05-23T09:08:46.069Z,13.46
2017-05-23T09:09:56.018Z,13.57
2017-05-23T09:11:06.286Z,13.7
2017-05-23T09:12:16.231Z,13.62
2017-05-23T09:13:26.494Z,13.68
2017-05-23T09:14:36.757Z,13.8
2017-05-23T09:15:46.713Z,13.76
2017-05-23T09:16:56.980Z,13.8
2017-05-23T09:18:07.250Z,13.64
2017-05-23T09:19:17.207Z,13.61
2017-05-23T09:20:27.475Z,13.75
2017-05-23T09:21:37.738Z,13.75
2017-05-23T09:22:48.004Z,13.76
2017-05-23T09:23:57.643Z,13.85
2017-05-23T09:25:07.597Z,13.93
2017-05-23T09:26:17.864Z,13.94
2017-05-23T09:27:28.127Z,14.04
2017-05-23T09:28:37.769Z,14.08
2017-05-23T09:29:47.415Z,14.16
2017-05-23T09:30:57.683Z,14.2
2017-05-23T09:32:07.013Z,14.33
2017-05-23T09:33:16.966Z,14.31
2017-05-23T09:34:27.233Z,14.33
2017-05-23T09:35:36.867Z,14.4
2017-05-23T09:36:46.503Z,14.4
2017-05-23T09:37:56.457Z,14.4
2017-05-23T09:39:06.416Z,14.34
2017-05-23T09:40:16.430Z,14.41
2017-05-23T09:41:26.696Z,14.37
2017-05-23T09:42:36.649Z,14.33
2017-05-23T09:43:46.290Z,14.33
2017-05-23T09:44:56.566Z,14.48
2017-05-23T09:46:06.838Z,14.38
2017-05-23T09:47:16.796Z,14.37
2017-05-23T09:48:27.067Z,14.38
2017-05-23T09:49:37.022Z,14.33
2017-05-23T09:50:47.287Z,14.4
2017-05-23T09:51:57.237Z,14.37
2017-05-23T09:53:06.875Z,14.45
2017-05-23T09:54:17.143Z,14.41
2017-05-23T09:55:27.411Z,14.59
2017-05-23T09:56:37.049Z,14.59
2017-05-23T09:57:47.312Z,14.53
2017-05-23T09:58:57.266Z,14.58
2017-05-23T10:00:06.911Z,14.66
2017-05-23T10:01:17.178Z,14.74
2017-05-23T10:02:26.814Z,14.78
2017-05-23T10:03:36.767Z,14.93
2017-05-23T10:04:46.724Z,14.86
2017-05-23T10:05:56.986Z,14.97
2017-05-23T10:07:06.942Z,14.96
2017-05-23T10:08:16.894Z,15.05
2017-05-23T10:09:26.846Z,15.05
2017-05-23T10:10:37.118Z,15.07
2017-05-23T10:11:46.766Z,15.11
2017-05-23T10:12:56.716Z,15.18
2017-05-23T10:14:06.665Z,15.36
2017-05-23T10:15:16.623Z,15.33
2017-05-23T10:16:26.570Z,15.39
2017-05-23T10:17:36.520Z,15.44
2017-05-23T10:18:46.475Z,15.48
2017-05-23T10:19:56.114Z,15.65
2017-05-23T10:21:06.375Z,15.67
2017-05-23T10:22:16.642Z,15.67
2017-05-23T10:23:26.288Z,15.73
2017-05-23T10:24:36.259Z,15.78
2017-05-23T10:25:46.526Z,15.83
2017-05-23T10:26:56.790Z,15.76
2017-05-23T10:28:06.427Z,15.85
2017-05-23T10:29:16.425Z,15.91
2017-05-23T10:30:26.694Z,16.02
2017-05-23T10:31:36.960Z,16.02
2017-05-23T10:32:46.912Z,16.02
2017-05-23T10:33:57.181Z,16.1
2017-05-23T10:35:07.449Z,16.25
2017-05-23T10:36:17.413Z,16.26
2017-05-23T10:37:27.367Z,16.29
2017-05-23T10:38:37.637Z,16.26
2017-05-23T10:39:47.602Z,16.39
2017-05-23T10:40:57.871Z,16.39
2017-05-23T10:42:08.139Z,16.46
2017-05-23T10:43:18.096Z,16.4
2017-05-23T10:44:27.737Z,16.43
2017-05-23T10:45:37.697Z,16.49
2017-05-23T10:46:47.968Z,16.54
2017-05-23T10:47:58.254Z,16.66
2017-05-23T10:49:08.215Z,16.66
2017-05-23T10:50:17.541Z,16.68
2017-05-23T10:51:27.808Z,16.87
2017-05-23T10:52:37.764Z,16.87
2017-05-23T10:53:47.725Z,16.98
2017-05-23T10:54:57.682Z,17.01
2017-05-23T10:56:07.632Z,17.04
2017-05-23T10:57:17.588Z,17.09
2017-05-23T10:58:26.912Z,17.19
2017-05-23T10:59:36.874Z,17.24
2017-05-23T11:00:47.148Z,17.32
2017-05-23T11:01:57.417Z,17.37
2017-05-23T11:03:07.368Z,17.44
2017-05-23T11:04:17.328Z,17.54
2017-05-23T11:05:27.277Z,17.69
2017-05-23T11:06:36.922Z,17.72
2017-05-23T11:07:47.192Z,17.79
2017-05-23T11:08:57.464Z,17.8
2017-05-23T11:10:07.422Z,17.87
2017-05-23T11:11:17.691Z,17.87
2017-05-23T11:12:27.646Z,18.02
2017-05-23T11:13:37.605Z,18.05
2017-05-23T11:14:47.561Z,18.11
2017-05-23T11:15:57.833Z,18.23
2017-05-23T11:17:07.801Z,18.12
2017-05-23T11:18:18.072Z,18.23
2017-05-23T11:19:28.341Z,18.41
2017-05-23T11:20:38.604Z,18.76
2017-05-23T11:21:48.559Z,19.05
2017-05-23T11:22:58.821Z,19.29
2017-05-23T11:24:09.101Z,19.57
2017-05-23T11:25:19.055Z,19.78
2017-05-23T11:26:29.324Z,20.14
2017-05-23T11:27:39.287Z,20.5
2017-05-23T11:28:49.567Z,20.86
2017-05-23T11:29:59.849Z,21.4
2017-05-23T11:31:10.117Z,21.97
2017-05-23T11:32:20.078Z,22.46
2017-05-23T11:33:30.351Z,22.93
2017-05-23T11:34:40.308Z,23.39
2017-05-23T11:35:50.592Z,24.01
2017-05-23T11:37:00.550Z,24.55
2017-05-23T11:38:10.823Z,25.14
2017-05-23T11:39:20.779Z,25.55
2017-05-23T11:40:30.741Z,26.19
2017-05-23T11:41:40.068Z,26.76
2017-05-23T11:42:50.035Z,27.25
2017-05-23T11:44:00.007Z,27.61
2017-05-23T11:45:09.965Z,28.01
2017-05-23T11:46:19.609Z,28.45
2017-05-23T11:47:29.895Z,28.92
2017-05-23T11:48:39.858Z,29.37
2017-05-23T11:49:50.138Z,29.57
2017-05-23T11:50:59.785Z,29.87
2017-05-23T11:52:10.068Z,30.02
2017-05-23T11:53:20.351Z,30.05
2017-05-23T11:54:30.632Z,30.56
2017-05-23T11:55:40.288Z,31.07
2017-05-23T11:56:50.577Z,31.39
2017-05-23T11:58:00.224Z,31.63
2017-05-23T11:59:10.189Z,31.89
2017-05-23T12:00:20.158Z,31.98
2017-05-23T12:01:30.437Z,31.74
2017-05-23T12:02:40.723Z,31.97
2017-05-23T12:03:50.385Z,32.12
2017-05-23T12:05:00.037Z,32.46
2017-05-23T12:06:10.325Z,32.68
2017-05-23T12:07:20.295Z,32.73
2017-05-23T12:08:30.012Z,32.91
2017-05-23T12:09:40.302Z,32.93
2017-05-23T12:10:50.591Z,33.04
2017-05-23T12:12:00.245Z,33.16
2017-05-23T12:13:10.219Z,33.32
2017-05-23T12:14:19.879Z,33.39
2017-05-23T12:15:30.170Z,33.65
2017-05-23T12:16:40.456Z,33.65
2017-05-23T12:17:50.763Z,33.66
2017-05-23T12:19:01.053Z,33.6
2017-05-23T12:20:10.720Z,33.65
2017-05-23T12:21:21.007Z,33.75
2017-05-23T12:22:30.975Z,34.06
2017-05-23T12:23:40.950Z,34.04
2017-05-23T12:24:51.241Z,33.94
2017-05-23T12:26:01.516Z,34.07
2017-05-23T12:27:11.500Z,34.16
2017-05-23T12:28:21.160Z,34.07
2017-05-23T12:29:31.141Z,34.16
2017-05-23T12:30:41.423Z,34.13
2017-05-23T12:31:51.080Z,34.04
2017-05-23T12:33:01.377Z,34.13
2017-05-23T12:34:11.663Z,34.04
2017-05-23T12:35:21.330Z,34.11
2017-05-23T12:36:31.308Z,34.07
2017-05-23T12:37:41.647Z,33.94
2017-05-23T12:38:51.941Z,33.76
2017-05-23T12:40:01.658Z,33.97
2017-05-23T12:41:11.313Z,34.25
2017-05-23T12:42:21.605Z,34.35
2017-05-23T12:43:31.893Z,34.18
2017-05-23T12:44:41.241Z,34.04
2017-05-23T12:45:51.532Z,33.77
2017-05-23T12:47:01.508Z,34.02
2017-05-23T12:48:11.170Z,34.19
2017-05-23T12:49:21.143Z,34.44
2017-05-23T12:50:31.429Z,34.62
2017-05-23T12:51:41.723Z,34.35
2017-05-23T12:52:52.022Z,34.04
2017-05-23T12:54:02.313Z,34.35
2017-05-23T12:55:11.982Z,34.56
2017-05-23T12:56:21.643Z,34.86
2017-05-23T12:57:31.929Z,35.1
2017-05-23T12:58:41.591Z,35.2
2017-05-23T12:59:51.560Z,35.13
2017-05-23T13:01:01.846Z,35.15
2017-05-23T13:02:12.138Z,35.03
2017-05-23T13:03:22.117Z,34.81
2017-05-23T13:04:32.093Z,34.93
2017-05-23T13:05:42.084Z,35.1
2017-05-23T13:06:52.366Z,34.89
2017-05-23T13:08:02.027Z,34.53
2017-05-23T13:09:12.319Z,35.05
2017-05-23T13:10:21.984Z,35.26
2017-05-23T13:11:31.957Z,35.54
2017-05-23T13:12:41.940Z,35.82
2017-05-23T13:13:51.923Z,35.84
2017-05-23T13:15:01.906Z,35.97
2017-05-23T13:16:11.567Z,36.06
2017-05-23T13:17:21.231Z,36.09
2017-05-23T13:18:31.508Z,36.26
2017-05-23T13:19:41.479Z,35.98
2017-05-23T13:20:50.278Z,35.44
2017-05-23T13:22:00.256Z,35.93
2017-05-23T13:23:10.235Z,36.14
2017-05-23T13:24:20.201Z,36.39
2017-05-23T13:25:30.495Z,36.53
2017-05-23T13:26:40.788Z,36.6
2017-05-23T13:27:50.769Z,36.75
2017-05-23T13:29:00.434Z,36.69
2017-05-23T13:30:10.404Z,36.69
2017-05-23T13:31:20.379Z,36.5
2017-05-23T13:32:30.685Z,36.53
2017-05-23T13:33:40.972Z,36.6
2017-05-23T13:34:50.947Z,36.55
2017-05-23T13:36:00.928Z,36.65
2017-05-23T13:37:10.910Z,36.82
2017-05-23T13:38:20.916Z,36.76
2017-05-23T13:39:30.900Z,36.53
2017-05-23T13:40:40.872Z,35.97
2017-05-23T13:41:50.852Z,35.47
2017-05-23T13:43:00.198Z,35.44
2017-05-23T13:44:10.480Z,35.49
2017-05-23T13:45:19.829Z,35.64
2017-05-23T13:46:30.184Z,35.79
2017-05-23T13:47:39.860Z,35.71
2017-05-23T13:48:50.148Z,35.75
2017-05-23T13:50:00.126Z,35.69
2017-05-23T13:51:10.410Z,35.39
2017-05-23T13:52:20.384Z,35.42
2017-05-23T13:53:30.358Z,35.39
2017-05-23T13:54:40.343Z,35.32
2017-05-23T13:55:50.632Z,35.6
2017-05-23T13:57:00.300Z,35.53
2017-05-23T13:58:10.284Z,35.64
2017-05-23T13:59:20.586Z,35.35
2017-05-23T14:00:30.880Z,35.6
2017-05-23T14:01:40.856Z,35.98
2017-05-23T14:02:51.142Z,36.06
2017-05-23T14:04:01.134Z,36.08
2017-05-23T14:05:11.423Z,35.79
2017-05-23T14:06:21.463Z,34.55
2017-05-23T14:07:31.445Z,33.82
2017-05-23T14:08:41.736Z,34.53
2017-05-23T14:09:52.032Z,35.1
2017-05-23T14:11:02.012Z,35.27
2017-05-23T14:12:11.994Z,35.37
2017-05-23T14:13:22.282Z,35.54
2017-05-23T14:14:32.575Z,35.72
2017-05-23T14:15:42.548Z,35.74
2017-05-23T14:16:52.522Z,35.5
2017-05-23T14:18:02.831Z,35.5
2017-05-23T14:19:12.495Z,36.08
2017-05-23T14:20:22.812Z,36.24
2017-05-23T14:21:33.096Z,36.18
2017-05-23T14:22:43.388Z,36.22
2017-05-23T14:23:53.365Z,36.44
2017-05-23T14:25:03.345Z,36.38
2017-05-23T14:26:12.695Z,36.45
2017-05-23T14:27:22.672Z,36.08
2017-05-23T14:28:32.958Z,35.52
2017-05-23T14:29:43.247Z,34.73
2017-05-23T14:30:52.915Z,35.18
2017-05-23T14:32:03.207Z,35.45
2017-05-23T14:33:12.555Z,35.57
2017-05-23T14:34:22.552Z,35.96
2017-05-23T14:35:32.533Z,36.18
2017-05-23T14:36:42.818Z,36.24
2017-05-23T14:37:52.475Z,36.06
2017-05-23T14:39:02.768Z,35.93
2017-05-23T14:40:12.437Z,35.98
2017-05-23T14:41:22.408Z,36.05
2017-05-23T14:42:32.694Z,35.96
2017-05-23T14:43:42.983Z,35.94
2017-05-23T14:44:53.269Z,36.2
2017-05-23T14:46:03.558Z,35.88
2017-05-23T14:47:13.213Z,35.66
2017-05-23T14:48:23.492Z,35.96
2017-05-23T14:49:33.783Z,35.64
2017-05-23T14:50:43.446Z,35.88
2017-05-23T14:51:53.418Z,35.96
2017-05-23T14:53:03.391Z,36.03
2017-05-23T14:54:13.684Z,36.41
2017-05-23T14:55:23.666Z,36.41
2017-05-23T14:56:33.949Z,36.08
2017-05-23T14:57:43.928Z,35.53
2017-05-23T14:58:53.589Z,35.13
2017-05-23T15:00:03.563Z,35.63
2017-05-23T15:01:13.855Z,35.75
2017-05-23T15:02:23.831Z,35.22
2017-05-23T15:03:34.124Z,35
2017-05-23T15:04:43.470Z,35.13
2017-05-23T15:05:53.135Z,35
2017-05-23T15:07:02.791Z,34.55
2017-05-23T15:08:12.765Z,34.7
2017-05-23T15:09:22.750Z,34.59
2017-05-23T15:10:33.040Z,34.4
2017-05-23T15:11:43.332Z,33.77
2017-05-23T15:12:53.623Z,33.94
2017-05-23T15:14:03.915Z,33.73
2017-05-23T15:15:13.901Z,33.75
2017-05-23T15:16:23.875Z,33.81
2017-05-23T15:17:34.164Z,33.75
2017-05-23T15:18:44.138Z,33.15